Sainte-Anne-Des-Monts, Canada
Current Conditions -  °F | °C
As of 8:00 AM on Friday 19 Dec 2014 (Local Time) from CYZV Reporting Station
Blowing Snow Blowing Snow  
Wind Chill: 12°   Ceiling: Unl
Heat Index: 23°   Visibility: 30mi
Dew Point:   Wind: 10mph
Humidity: 36%   Direction: 10°N
Pressure: 29.81"   Gusts: 18mph
Location:  49.12°N, 66.48°W
Report Text: CYZV 191300Z 01009G16KT 30SM DRSN FEW060 FEW110 SCT220 M05/M18 A2981 RMK SC1AC2CI1 SC TR SLP097
Loading
Personal Weather Stations






























Interactive Weather Map New forecast layout! Learn more

10-Day Weather Forecast

Advertisements
Track Severe Weather on mobile